AFR7501 LFLL-LFBO
Flight info
| Callsign | AFR7501 |
|---|---|
| Flight time | 0h 43m |
| Altitude | 29000 |
| Route | REPSI DCT LERGA DCT MINSO DCT NARAK |
| Aircraft | A320/M-SDE3FGHIRWY/LB1 |
Departure
| Time | 2026-05-07 20:26 |
|---|---|
| Airport | Lyon Saint-Exupéry Airport (LFLL) |
Arrival
| Time | 2026-05-07 21:10 |
|---|---|
| Airport | Toulouse-Blagnac Airport (LFBO) |
| Time | Latitude | Longitude | Altitude | Speed | Heading |
|---|---|---|---|---|---|
| 2026-05-07 19:59 | 45.72435 | 5.08298 | 788 ft | 0 kts | 244° |
| 2026-05-07 20:12 | 45.72440 | 5.08310 | 788 ft | 2 kts | 256° |
| 2026-05-07 20:12 | 45.72448 | 5.08331 | 788 ft | 3 kts | 187° |
| 2026-05-07 20:13 | 45.72458 | 5.08331 | 788 ft | 0 kts | 153° |
| 2026-05-07 20:13 | 45.72462 | 5.08327 | 788 ft | 3 kts | 173° |
| 2026-05-07 20:13 | 45.72473 | 5.08326 | 788 ft | 3 kts | 147° |
| 2026-05-07 20:13 | 45.72482 | 5.08312 | 788 ft | 0 kts | 97° |
| 2026-05-07 20:18 | 45.72481 | 5.08317 | 788 ft | 3 kts | 102° |
| 2026-05-07 20:18 | 45.72459 | 5.08376 | 788 ft | 11 kts | 129° |
| 2026-05-07 20:18 | 45.72371 | 5.08410 | 789 ft | 15 kts | 174° |
| 2026-05-07 20:18 | 45.72262 | 5.08422 | 791 ft | 17 kts | 175° |
| 2026-05-07 20:19 | 45.72141 | 5.08435 | 792 ft | 18 kts | 174° |
| 2026-05-07 20:19 | 45.72011 | 5.08455 | 794 ft | 19 kts | 175° |
| 2026-05-07 20:19 | 45.71872 | 5.08470 | 795 ft | 21 kts | 176° |
| 2026-05-07 20:19 | 45.71723 | 5.08484 | 797 ft | 22 kts | 176° |
| 2026-05-07 20:20 | 45.71568 | 5.08508 | 799 ft | 23 kts | 175° |
| 2026-05-07 20:20 | 45.71404 | 5.08527 | 801 ft | 24 kts | 175° |
| 2026-05-07 20:20 | 45.71247 | 5.08545 | 803 ft | 17 kts | 175° |
| 2026-05-07 20:20 | 45.71171 | 5.08565 | 804 ft | 11 kts | 159° |
| 2026-05-07 20:21 | 45.71122 | 5.08645 | 805 ft | 11 kts | 110° |
| 2026-05-07 20:21 | 45.71100 | 5.08765 | 805 ft | 13 kts | 104° |
| 2026-05-07 20:21 | 45.71091 | 5.08814 | 805 ft | 0 kts | 104° |
| 2026-05-07 20:24 | 45.71090 | 5.08820 | 805 ft | 3 kts | 105° |
| 2026-05-07 20:24 | 45.71081 | 5.08870 | 805 ft | 8 kts | 104° |
| 2026-05-07 20:25 | 45.71088 | 5.08965 | 805 ft | 11 kts | 75° |
| 2026-05-07 20:25 | 45.71155 | 5.09020 | 803 ft | 4 kts | 358° |
| 2026-05-07 20:25 | 45.71155 | 5.09019 | 803 ft | 0 kts | 357° |
| 2026-05-07 20:26 | 45.71404 | 5.08987 | 801 ft | 72 kts | 356° |
| 2026-05-07 20:26 | 45.72105 | 5.08901 | 796 ft | 128 kts | 355° |
| 2026-05-07 20:26 | 45.73137 | 5.08772 | 798 ft | 171 kts | 354° |
| 2026-05-07 20:26 | 45.74290 | 5.08648 | 1468 ft | 160 kts | 354° |
| 2026-05-07 20:27 | 45.75402 | 5.08511 | 2090 ft | 162 kts | 354° |
| 2026-05-07 20:27 | 45.76615 | 5.08362 | 2486 ft | 187 kts | 354° |
| 2026-05-07 20:27 | 45.77996 | 5.08190 | 3174 ft | 212 kts | 354° |
| 2026-05-07 20:27 | 45.79546 | 5.07997 | 3939 ft | 235 kts | 354° |
| 2026-05-07 20:28 | 45.81212 | 5.07793 | 4994 ft | 243 kts | 354° |
| 2026-05-07 20:28 | 45.82964 | 5.07579 | 5875 ft | 264 kts | 354° |
| 2026-05-07 20:28 | 45.84827 | 5.07310 | 6872 ft | 273 kts | 348° |
| 2026-05-07 20:28 | 45.86611 | 5.06335 | 7928 ft | 279 kts | 327° |
| 2026-05-07 20:29 | 45.88059 | 5.04470 | 8971 ft | 284 kts | 306° |
| 2026-05-07 20:29 | 45.88958 | 5.01953 | 9801 ft | 287 kts | 285° |
| 2026-05-07 20:29 | 45.89144 | 4.99094 | 10522 ft | 294 kts | 264° |
| 2026-05-07 20:29 | 45.88554 | 4.96192 | 10781 ft | 316 kts | 242° |
| 2026-05-07 20:30 | 45.87391 | 4.93375 | 10973 ft | 340 kts | 239° |
| 2026-05-07 20:30 | 45.86120 | 4.90389 | 11170 ft | 360 kts | 238° |
| 2026-05-07 20:30 | 45.84787 | 4.87281 | 11710 ft | 369 kts | 238° |
| 2026-05-07 20:30 | 45.83440 | 4.84128 | 12390 ft | 373 kts | 239° |
| 2026-05-07 20:31 | 45.82088 | 4.80936 | 13070 ft | 377 kts | 239° |
| 2026-05-07 20:31 | 45.80729 | 4.77690 | 13764 ft | 381 kts | 239° |
| 2026-05-07 20:31 | 45.79370 | 4.74418 | 14460 ft | 385 kts | 239° |
| 2026-05-07 20:31 | 45.77946 | 4.71146 | 15118 ft | 389 kts | 234° |
| 2026-05-07 20:32 | 45.76236 | 4.68119 | 15754 ft | 393 kts | 230° |
| 2026-05-07 20:32 | 45.74499 | 4.65155 | 16371 ft | 396 kts | 230° |
| 2026-05-07 20:32 | 45.72710 | 4.62115 | 16958 ft | 401 kts | 230° |
| 2026-05-07 20:32 | 45.70907 | 4.59056 | 17555 ft | 405 kts | 230° |
| 2026-05-07 20:33 | 45.69081 | 4.55960 | 18141 ft | 409 kts | 230° |
| 2026-05-07 20:33 | 45.67240 | 4.52837 | 18724 ft | 412 kts | 230° |
| 2026-05-07 20:33 | 45.65382 | 4.49687 | 19307 ft | 416 kts | 230° |
| 2026-05-07 20:33 | 45.63509 | 4.46514 | 19902 ft | 420 kts | 230° |
| 2026-05-07 20:34 | 45.61616 | 4.43310 | 20497 ft | 423 kts | 230° |
| 2026-05-07 20:34 | 45.59710 | 4.40094 | 21050 ft | 426 kts | 230° |
| 2026-05-07 20:34 | 45.57788 | 4.36858 | 21568 ft | 429 kts | 230° |
| 2026-05-07 20:34 | 45.55850 | 4.33598 | 22061 ft | 432 kts | 230° |
| 2026-05-07 20:35 | 45.53899 | 4.30315 | 22547 ft | 435 kts | 230° |
| 2026-05-07 20:35 | 45.51944 | 4.26997 | 23010 ft | 438 kts | 231° |
| 2026-05-07 20:35 | 45.50067 | 4.23562 | 23465 ft | 441 kts | 233° |
| 2026-05-07 20:35 | 45.48267 | 4.20017 | 23909 ft | 444 kts | 235° |
| 2026-05-07 20:36 | 45.46499 | 4.16389 | 24336 ft | 447 kts | 236° |
| 2026-05-07 20:36 | 45.44734 | 4.12724 | 24739 ft | 450 kts | 236° |
| 2026-05-07 20:36 | 45.42954 | 4.09051 | 25139 ft | 453 kts | 235° |
| 2026-05-07 20:36 | 45.41138 | 4.05361 | 25510 ft | 457 kts | 235° |
| 2026-05-07 20:37 | 45.39289 | 4.01662 | 25871 ft | 460 kts | 234° |
| 2026-05-07 20:37 | 45.37413 | 3.97958 | 26238 ft | 463 kts | 234° |
| 2026-05-07 20:37 | 45.35520 | 3.94246 | 26598 ft | 465 kts | 234° |
| 2026-05-07 20:37 | 45.33642 | 3.90567 | 27061 ft | 464 kts | 234° |
| 2026-05-07 20:38 | 45.31752 | 3.86863 | 27570 ft | 463 kts | 234° |
| 2026-05-07 20:38 | 45.29863 | 3.83161 | 27918 ft | 463 kts | 234° |
| 2026-05-07 20:38 | 45.27976 | 3.79458 | 27994 ft | 463 kts | 234° |
| 2026-05-07 20:39 | 45.24216 | 3.72046 | 28015 ft | 462 kts | 234° |
| 2026-05-07 20:39 | 45.20538 | 3.64556 | 28002 ft | 462 kts | 236° |
| 2026-05-07 20:40 | 45.16889 | 3.57065 | 28008 ft | 461 kts | 235° |
| 2026-05-07 20:40 | 45.13219 | 3.49620 | 28013 ft | 460 kts | 235° |
| 2026-05-07 20:41 | 45.09538 | 3.42219 | 28004 ft | 460 kts | 235° |
| 2026-05-07 20:41 | 45.05843 | 3.34795 | 28014 ft | 462 kts | 235° |
| 2026-05-07 20:42 | 45.02137 | 3.27369 | 28002 ft | 464 kts | 235° |
| 2026-05-07 20:42 | 44.98417 | 3.19928 | 28008 ft | 462 kts | 235° |
| 2026-05-07 20:43 | 44.94726 | 3.12557 | 28010 ft | 461 kts | 235° |
| 2026-05-07 20:43 | 44.91014 | 3.05175 | 28014 ft | 461 kts | 234° |
| 2026-05-07 20:44 | 44.87299 | 2.97799 | 28010 ft | 461 kts | 234° |
| 2026-05-07 20:44 | 44.83597 | 2.90403 | 28002 ft | 462 kts | 236° |
| 2026-05-07 20:45 | 44.80080 | 2.82824 | 28011 ft | 463 kts | 238° |
| 2026-05-07 20:45 | 44.76642 | 2.75169 | 28013 ft | 462 kts | 238° |
| 2026-05-07 20:46 | 44.73178 | 2.67577 | 28009 ft | 461 kts | 237° |
| 2026-05-07 20:46 | 44.69668 | 2.60021 | 28007 ft | 460 kts | 237° |
| 2026-05-07 20:47 | 44.66153 | 2.52505 | 28013 ft | 460 kts | 237° |
| 2026-05-07 20:47 | 44.62643 | 2.44986 | 28011 ft | 460 kts | 237° |
| 2026-05-07 20:48 | 44.59141 | 2.37477 | 28001 ft | 460 kts | 237° |
| 2026-05-07 20:48 | 44.55648 | 2.30026 | 28013 ft | 460 kts | 237° |
| 2026-05-07 20:49 | 44.52129 | 2.22545 | 28005 ft | 459 kts | 237° |
| 2026-05-07 20:49 | 44.48615 | 2.15076 | 28007 ft | 460 kts | 237° |
| 2026-05-07 20:50 | 44.45089 | 2.07603 | 28014 ft | 459 kts | 237° |
| 2026-05-07 20:50 | 44.41553 | 2.00146 | 28013 ft | 460 kts | 236° |
| 2026-05-07 20:51 | 44.38020 | 1.92702 | 28016 ft | 460 kts | 236° |
| 2026-05-07 20:51 | 44.34475 | 1.85264 | 28002 ft | 460 kts | 236° |
| 2026-05-07 20:52 | 44.30891 | 1.77877 | 27532 ft | 458 kts | 233° |
| 2026-05-07 20:52 | 44.28766 | 1.74517 | 25885 ft | 470 kts | 223° |
| 2026-05-07 20:52 | 44.26187 | 1.71624 | 24223 ft | 481 kts | 214° |
| 2026-05-07 20:52 | 44.23393 | 1.69016 | 22880 ft | 483 kts | 214° |
| 2026-05-07 20:53 | 44.20648 | 1.66420 | 22058 ft | 472 kts | 214° |
| 2026-05-07 20:53 | 44.17992 | 1.63887 | 21165 ft | 464 kts | 214° |
| 2026-05-07 20:53 | 44.15354 | 1.61360 | 20260 ft | 458 kts | 214° |
| 2026-05-07 20:53 | 44.12718 | 1.58829 | 19361 ft | 452 kts | 215° |
| 2026-05-07 20:54 | 44.10170 | 1.56386 | 18494 ft | 446 kts | 214° |
| 2026-05-07 20:54 | 44.07631 | 1.53960 | 17623 ft | 440 kts | 214° |
| 2026-05-07 20:54 | 44.05116 | 1.51570 | 16750 ft | 435 kts | 214° |
| 2026-05-07 20:54 | 44.02633 | 1.49217 | 15875 ft | 429 kts | 214° |
| 2026-05-07 20:55 | 44.00164 | 1.46927 | 15035 ft | 425 kts | 211° |
| 2026-05-07 20:55 | 43.97512 | 1.45162 | 14248 ft | 420 kts | 200° |
| 2026-05-07 20:55 | 43.94710 | 1.44119 | 13497 ft | 416 kts | 190° |
| 2026-05-07 20:55 | 43.91885 | 1.43452 | 13125 ft | 407 kts | 190° |
| 2026-05-07 20:56 | 43.89103 | 1.42793 | 12972 ft | 398 kts | 190° |
| 2026-05-07 20:56 | 43.86435 | 1.42239 | 12850 ft | 379 kts | 184° |
| 2026-05-07 20:56 | 43.83912 | 1.42374 | 12698 ft | 348 kts | 171° |
| 2026-05-07 20:56 | 43.81693 | 1.43186 | 12571 ft | 322 kts | 159° |
| 2026-05-07 20:57 | 43.79743 | 1.44511 | 12201 ft | 307 kts | 148° |
| 2026-05-07 20:57 | 43.78035 | 1.46246 | 11598 ft | 302 kts | 142° |
| 2026-05-07 20:57 | 43.76391 | 1.48032 | 10965 ft | 299 kts | 142° |
| 2026-05-07 20:57 | 43.74759 | 1.49802 | 10351 ft | 296 kts | 142° |
| 2026-05-07 20:58 | 43.73174 | 1.51518 | 10193 ft | 286 kts | 142° |
| 2026-05-07 20:58 | 43.71600 | 1.53219 | 10130 ft | 288 kts | 142° |
| 2026-05-07 20:58 | 43.70015 | 1.54923 | 10031 ft | 288 kts | 142° |
| 2026-05-07 20:58 | 43.68420 | 1.56631 | 9657 ft | 295 kts | 142° |
| 2026-05-07 20:59 | 43.66792 | 1.58371 | 9340 ft | 292 kts | 142° |
| 2026-05-07 20:59 | 43.65208 | 1.60065 | 9100 ft | 283 kts | 142° |
| 2026-05-07 20:59 | 43.63648 | 1.61694 | 8525 ft | 280 kts | 148° |
| 2026-05-07 20:59 | 43.61919 | 1.62776 | 8233 ft | 265 kts | 165° |
| 2026-05-07 21:00 | 43.60159 | 1.63156 | 8009 ft | 250 kts | 180° |
| 2026-05-07 21:00 | 43.58446 | 1.62973 | 7558 ft | 246 kts | 187° |
| 2026-05-07 21:00 | 43.56753 | 1.62690 | 7065 ft | 244 kts | 187° |
| 2026-05-07 21:00 | 43.55083 | 1.62473 | 6690 ft | 241 kts | 176° |
| 2026-05-07 21:01 | 43.53504 | 1.63158 | 6317 ft | 241 kts | 148° |
| 2026-05-07 21:01 | 43.52132 | 1.64484 | 5936 ft | 241 kts | 143° |
| 2026-05-07 21:01 | 43.51252 | 1.65420 | 5689 ft | 242 kts | 142° |
| 2026-05-07 21:01 | 43.49936 | 1.66841 | 5388 ft | 238 kts | 142° |
| 2026-05-07 21:02 | 43.48122 | 1.68580 | 4877 ft | 237 kts | 160° |
| 2026-05-07 21:02 | 43.47064 | 1.68870 | 4633 ft | 234 kts | 181° |
| 2026-05-07 21:02 | 43.44935 | 1.68491 | 4142 ft | 233 kts | 191° |
| 2026-05-07 21:02 | 43.43348 | 1.68060 | 3778 ft | 232 kts | 192° |
| 2026-05-07 21:03 | 43.42283 | 1.67730 | 3530 ft | 231 kts | 199° |
| 2026-05-07 21:03 | 43.40920 | 1.66624 | 3180 ft | 228 kts | 226° |
| 2026-05-07 21:03 | 43.40104 | 1.64811 | 3042 ft | 226 kts | 253° |
| 2026-05-07 21:03 | 43.39971 | 1.62664 | 3041 ft | 235 kts | 280° |
| 2026-05-07 21:04 | 43.40573 | 1.60676 | 3037 ft | 221 kts | 308° |
| 2026-05-07 21:04 | 43.41651 | 1.59217 | 3049 ft | 214 kts | 318° |
| 2026-05-07 21:04 | 43.42748 | 1.57871 | 3058 ft | 209 kts | 318° |
| 2026-05-07 21:04 | 43.43825 | 1.56549 | 3039 ft | 207 kts | 318° |
| 2026-05-07 21:05 | 43.44876 | 1.55257 | 3038 ft | 199 kts | 318° |
| 2026-05-07 21:05 | 43.45898 | 1.54000 | 3040 ft | 196 kts | 318° |
| 2026-05-07 21:05 | 43.46915 | 1.52761 | 3040 ft | 194 kts | 321° |
| 2026-05-07 21:05 | 43.47988 | 1.51626 | 3042 ft | 194 kts | 323° |
| 2026-05-07 21:06 | 43.49061 | 1.50521 | 3037 ft | 190 kts | 323° |
| 2026-05-07 21:06 | 43.50103 | 1.49445 | 3043 ft | 185 kts | 323° |
| 2026-05-07 21:06 | 43.51121 | 1.48392 | 3019 ft | 178 kts | 322° |
| 2026-05-07 21:06 | 43.52058 | 1.47422 | 2879 ft | 167 kts | 322° |
| 2026-05-07 21:07 | 43.52973 | 1.46474 | 2683 ft | 163 kts | 322° |
| 2026-05-07 21:07 | 43.53884 | 1.45530 | 2467 ft | 161 kts | 322° |
| 2026-05-07 21:07 | 43.54790 | 1.44634 | 2270 ft | 160 kts | 326° |
| 2026-05-07 21:07 | 43.55717 | 1.43821 | 2053 ft | 160 kts | 328° |
| 2026-05-07 21:08 | 43.56664 | 1.43020 | 1786 ft | 158 kts | 327° |
| 2026-05-07 21:08 | 43.57564 | 1.42194 | 1595 ft | 154 kts | 323° |
| 2026-05-07 21:08 | 43.58406 | 1.41297 | 1365 ft | 152 kts | 321° |
| 2026-05-07 21:08 | 43.59247 | 1.40413 | 1158 ft | 151 kts | 323° |
| 2026-05-07 21:09 | 43.60093 | 1.39548 | 956 ft | 151 kts | 323° |
| 2026-05-07 21:09 | 43.60932 | 1.38677 | 750 ft | 151 kts | 323° |
| 2026-05-07 21:09 | 43.61772 | 1.37807 | 535 ft | 151 kts | 322° |
| 2026-05-07 21:09 | 43.62598 | 1.36966 | 496 ft | 132 kts | 323° |
| 2026-05-07 21:10 | 43.63066 | 1.36463 | 489 ft | 45 kts | 321° |
| 2026-05-07 21:10 | 43.63302 | 1.36210 | 495 ft | 42 kts | 323° |
| 2026-05-07 21:10 | 43.63524 | 1.35986 | 495 ft | 38 kts | 322° |
| 2026-05-07 21:10 | 43.63708 | 1.35796 | 494 ft | 20 kts | 336° |
| 2026-05-07 21:11 | 43.63764 | 1.35841 | 496 ft | 9 kts | 54° |
| 2026-05-07 21:11 | 43.63806 | 1.35932 | 495 ft | 13 kts | 68° |
| 2026-05-07 21:11 | 43.63782 | 1.36023 | 491 ft | 0 kts | 138° |
| 2026-05-07 21:13 | 43.63750 | 1.36061 | 492 ft | 10 kts | 140° |
| 2026-05-07 21:13 | 43.63689 | 1.36125 | 488 ft | 12 kts | 142° |
| 2026-05-07 21:13 | 43.63614 | 1.36204 | 488 ft | 15 kts | 143° |
| 2026-05-07 21:13 | 43.63524 | 1.36296 | 489 ft | 17 kts | 143° |
| 2026-05-07 21:14 | 43.63418 | 1.36402 | 495 ft | 20 kts | 143° |
| 2026-05-07 21:14 | 43.63301 | 1.36524 | 492 ft | 22 kts | 143° |
| 2026-05-07 21:14 | 43.63173 | 1.36661 | 495 ft | 24 kts | 142° |
| 2026-05-07 21:14 | 43.63032 | 1.36807 | 493 ft | 26 kts | 143° |
| 2026-05-07 21:15 | 43.62902 | 1.36943 | 493 ft | 22 kts | 146° |
| 2026-05-07 21:15 | 43.62856 | 1.37102 | 489 ft | 12 kts | 55° |
| 2026-05-07 21:15 | 43.62915 | 1.37179 | 490 ft | 7 kts | 22° |
| 2026-05-07 21:15 | 43.62948 | 1.37196 | 495 ft | 0 kts | 20° |
| 2026-05-07 21:16 | 43.62955 | 1.37203 | 495 ft | 1 kts | 44° |
| 2026-05-07 21:16 | 43.62953 | 1.37210 | 492 ft | 0 kts | 100° |
| 2026-05-07 21:16 | 43.62945 | 1.37228 | 492 ft | 7 kts | 121° |
| 2026-05-07 21:16 | 43.62898 | 1.37281 | 489 ft | 10 kts | 150° |
| 2026-05-07 21:17 | 43.62833 | 1.37336 | 493 ft | 10 kts | 145° |
| 2026-05-07 21:17 | 43.62803 | 1.37412 | 491 ft | 6 kts | 89° |
| 2026-05-07 21:17 | 43.62820 | 1.37472 | 490 ft | 8 kts | 59° |
| 2026-05-07 21:17 | 43.62862 | 1.37518 | 492 ft | 1 kts | 27° |
| 2026-05-07 21:18 | 43.62876 | 1.37525 | 486 ft | 1 kts | 1° |
| 2026-05-07 21:18 | 43.62882 | 1.37510 | 492 ft | 3 kts | 308° |
| 2026-05-07 21:18 | 43.62889 | 1.37501 | 492 ft | 1 kts | 317° |
| 2026-05-07 21:18 | 43.62893 | 1.37496 | 494 ft | 0 kts | 317° |
| 2026-05-07 21:19 | 43.62893 | 1.37495 | 494 ft | 0 kts | 320° |
| 2026-05-07 21:19 | 43.62894 | 1.37496 | 494 ft | 0 kts | 330° |
| 2026-05-07 21:19 | 43.62897 | 1.37498 | 494 ft | 0 kts | 4° |
| 2026-05-07 21:19 | 43.62898 | 1.37499 | 494 ft | 0 kts | 13° |
| 2026-05-07 21:20 | 45.71091 | 5.08814 | 805 ft | 1 kts | 104° |
| 2026-05-07 21:21 | 45.75404 | 4.66681 | 16573 ft | 275 kts | 231° |
| 2026-05-07 21:21 | 43.41446 | 1.67195 | 3322 ft | 214 kts | 213° |
| 2026-05-07 21:21 | 43.40371 | 1.65880 | 2781 ft | 195 kts | 229° |
| 2026-05-07 21:21 | 43.39697 | 1.64773 | 2644 ft | 173 kts | 233° |